sensor_id;sensor_type;location;lat;lon;timestamp;temperature;humidity
15296;DHT22;7749;49.964;7.890;2023-04-24T00:00:36;11.80;99.90
15296;DHT22;7749;49.964;7.890;2023-04-24T00:03:23;11.90;99.90
15296;DHT22;7749;49.964;7.890;2023-04-24T00:06:06;12.00;99.90
15296;DHT22;7749;49.964;7.890;2023-04-24T00:08:52;12.00;99.90
15296;DHT22;7749;49.964;7.890;2023-04-24T00:11:35;12.00;99.90
15296;DHT22;7749;49.964;7.890;2023-04-24T00:14:18;11.90;99.90
15296;DHT22;7749;49.964;7.890;2023-04-24T00:17:02;11.90;99.90
15296;DHT22;7749;49.964;7.890;2023-04-24T00:19:46;11.90;99.90
15296;DHT22;7749;49.964;7.890;2023-04-24T00:22:29;12.00;99.90
15296;DHT22;7749;49.964;7.890;2023-04-24T00:25:12;11.90;99.90
15296;DHT22;7749;49.964;7.890;2023-04-24T00:27:55;11.90;99.90
15296;DHT22;7749;49.964;7.890;2023-04-24T00:30:38;11.80;99.90
15296;DHT22;7749;49.964;7.890;2023-04-24T00:33:21;11.90;99.90
15296;DHT22;7749;49.964;7.890;2023-04-24T00:36:04;11.90;99.90
15296;DHT22;7749;49.964;7.890;2023-04-24T00:38:51;11.90;99.90
15296;DHT22;7749;49.964;7.890;2023-04-24T00:41:34;11.90;99.90
15296;DHT22;7749;49.964;7.890;2023-04-24T00:44:18;12.00;99.90
15296;DHT22;7749;49.964;7.890;2023-04-24T00:47:01;11.90;99.90
15296;DHT22;7749;49.964;7.890;2023-04-24T00:52:34;11.90;99.90
15296;DHT22;7749;49.964;7.890;2023-04-24T00:55:05;12.00;99.90
15296;DHT22;7749;49.964;7.890;2023-04-24T00:57:33;11.90;99.90
15296;DHT22;7749;49.964;7.890;2023-04-24T01:00:05;11.90;99.90
15296;DHT22;7749;49.964;7.890;2023-04-24T01:02:33;11.90;99.90
15296;DHT22;7749;49.964;7.890;2023-04-24T01:05:02;11.90;99.90
15296;DHT22;7749;49.964;7.890;2023-04-24T01:07:34;12.00;99.90
15296;DHT22;7749;49.964;7.890;2023-04-24T01:10:03;12.10;99.90
15296;DHT22;7749;49.964;7.890;2023-04-24T01:12:32;12.00;99.90
15296;DHT22;7749;49.964;7.890;2023-04-24T01:15:00;12.00;99.90
15296;DHT22;7749;49.964;7.890;2023-04-24T01:17:28;12.00;99.90
15296;DHT22;7749;49.964;7.890;2023-04-24T01:19:56;12.00;99.90
15296;DHT22;7749;49.964;7.890;2023-04-24T01:22:25;11.80;99.90
15296;DHT22;7749;49.964;7.890;2023-04-24T01:24:53;11.90;99.90
15296;DHT22;7749;49.964;7.890;2023-04-24T01:27:23;12.00;99.90
15296;DHT22;7749;49.964;7.890;2023-04-24T01:29:52;12.00;99.90
15296;DHT22;7749;49.964;7.890;2023-04-24T01:32:24;12.00;99.90
15296;DHT22;7749;49.964;7.890;2023-04-24T01:34:52;12.00;99.90
15296;DHT22;7749;49.964;7.890;2023-04-24T01:37:20;12.10;99.90
15296;DHT22;7749;49.964;7.890;2023-04-24T01:39:48;12.00;99.90
15296;DHT22;7749;49.964;7.890;2023-04-24T01:42:18;11.90;99.90
15296;DHT22;7749;49.964;7.890;2023-04-24T01:44:47;11.90;99.90
15296;DHT22;7749;49.964;7.890;2023-04-24T01:47:14;11.80;99.90
15296;DHT22;7749;49.964;7.890;2023-04-24T01:49:42;11.80;99.90
15296;DHT22;7749;49.964;7.890;2023-04-24T01:52:11;11.80;99.90
15296;DHT22;7749;49.964;7.890;2023-04-24T01:54:39;11.80;99.90
15296;DHT22;7749;49.964;7.890;2023-04-24T01:57:07;11.80;99.90
15296;DHT22;7749;49.964;7.890;2023-04-24T01:59:41;11.80;99.90
15296;DHT22;7749;49.964;7.890;2023-04-24T02:02:09;11.90;99.90
15296;DHT22;7749;49.964;7.890;2023-04-24T02:04:37;11.80;99.90
15296;DHT22;7749;49.964;7.890;2023-04-24T02:07:08;11.80;99.90
15296;DHT22;7749;49.964;7.890;2023-04-24T02:09:46;11.90;99.90
15296;DHT22;7749;49.964;7.890;2023-04-24T02:12:17;11.80;99.90
15296;DHT22;7749;49.964;7.890;2023-04-24T02:14:45;11.80;99.90
15296;DHT22;7749;49.964;7.890;2023-04-24T02:17:13;11.80;99.90
15296;DHT22;7749;49.964;7.890;2023-04-24T02:19:44;11.90;99.90
15296;DHT22;7749;49.964;7.890;2023-04-24T02:22:12;11.90;99.90
15296;DHT22;7749;49.964;7.890;2023-04-24T02:24:40;11.90;99.90
15296;DHT22;7749;49.964;7.890;2023-04-24T02:27:08;12.00;99.90
15296;DHT22;7749;49.964;7.890;2023-04-24T02:29:36;11.90;99.90
15296;DHT22;7749;49.964;7.890;2023-04-24T02:32:06;11.90;99.90
15296;DHT22;7749;49.964;7.890;2023-04-24T02:34:35;11.80;99.90
15296;DHT22;7749;49.964;7.890;2023-04-24T02:37:02;11.90;99.90
15296;DHT22;7749;49.964;7.890;2023-04-24T02:39:30;11.90;99.90
15296;DHT22;7749;49.964;7.890;2023-04-24T02:41:58;11.90;99.90
15296;DHT22;7749;49.964;7.890;2023-04-24T02:44:29;11.80;99.90
15296;DHT22;7749;49.964;7.890;2023-04-24T02:46:56;11.80;99.90
15296;DHT22;7749;49.964;7.890;2023-04-24T02:49:24;11.80;99.90
15296;DHT22;7749;49.964;7.890;2023-04-24T02:51:52;11.70;99.90
15296;DHT22;7749;49.964;7.890;2023-04-24T02:54:20;11.70;99.90
15296;DHT22;7749;49.964;7.890;2023-04-24T02:56:47;11.70;99.90
15296;DHT22;7749;49.964;7.890;2023-04-24T02:59:18;11.70;99.90
15296;DHT22;7749;49.964;7.890;2023-04-24T03:01:46;11.90;99.90
15296;DHT22;7749;49.964;7.890;2023-04-24T03:04:14;11.70;99.90
15296;DHT22;7749;49.964;7.890;2023-04-24T03:06:43;11.80;99.90
15296;DHT22;7749;49.964;7.890;2023-04-24T03:09:11;11.90;99.90
15296;DHT22;7749;49.964;7.890;2023-04-24T03:11:38;11.70;99.90
15296;DHT22;7749;49.964;7.890;2023-04-24T03:14:06;11.70;99.90
15296;DHT22;7749;49.964;7.890;2023-04-24T03:16:37;11.60;62.30
15296;DHT22;7749;49.964;7.890;2023-04-24T03:19:06;11.60;44.20
15296;DHT22;7749;49.964;7.890;2023-04-24T03:21:33;11.50;8.10
15296;DHT22;7749;49.964;7.890;2023-04-24T03:24:03;11.40;1.00
15296;DHT22;7749;49.964;7.890;2023-04-24T03:26:31;11.30;3.60
15296;DHT22;7749;49.964;7.890;2023-04-24T03:28:58;11.20;1.00
15296;DHT22;7749;49.964;7.890;2023-04-24T03:31:26;11.00;1.00
15296;DHT22;7749;49.964;7.890;2023-04-24T03:33:54;11.00;1.30
15296;DHT22;7749;49.964;7.890;2023-04-24T03:36:22;11.00;15.10
15296;DHT22;7749;49.964;7.890;2023-04-24T03:38:54;10.90;22.40
15296;DHT22;7749;49.964;7.890;2023-04-24T03:41:22;10.90;25.00
15296;DHT22;7749;49.964;7.890;2023-04-24T03:43:51;10.90;37.20
15296;DHT22;7749;49.964;7.890;2023-04-24T03:46:18;10.90;60.00
15296;DHT22;7749;49.964;7.890;2023-04-24T03:48:46;10.80;50.00
15296;DHT22;7749;49.964;7.890;2023-04-24T03:51:14;10.80;38.70
15296;DHT22;7749;49.964;7.890;2023-04-24T03:53:42;10.70;66.20
15296;DHT22;7749;49.964;7.890;2023-04-24T03:56:10;10.70;48.80
15296;DHT22;7749;49.964;7.890;2023-04-24T03:58:41;10.50;33.50
15296;DHT22;7749;49.964;7.890;2023-04-24T04:01:08;10.70;33.10
15296;DHT22;7749;49.964;7.890;2023-04-24T04:03:36;10.40;46.00
15296;DHT22;7749;49.964;7.890;2023-04-24T04:06:04;10.40;49.30
15296;DHT22;7749;49.964;7.890;2023-04-24T04:08:32;10.30;43.70
15296;DHT22;7749;49.964;7.890;2023-04-24T04:11:03;10.20;43.20
15296;DHT22;7749;49.964;7.890;2023-04-24T04:13:32;10.10;50.00
15296;DHT22;7749;49.964;7.890;2023-04-24T04:15:59;10.20;57.10
15296;DHT22;7749;49.964;7.890;2023-04-24T04:18:34;10.10;28.20
15296;DHT22;7749;49.964;7.890;2023-04-24T04:21:02;10.00;33.20
15296;DHT22;7749;49.964;7.890;2023-04-24T04:23:29;9.90;38.50
15296;DHT22;7749;49.964;7.890;2023-04-24T04:25:58;9.80;50.70
15296;DHT22;7749;49.964;7.890;2023-04-24T04:28:26;10.00;51.10
15296;DHT22;7749;49.964;7.890;2023-04-24T04:30:54;9.80;45.90
15296;DHT22;7749;49.964;7.890;2023-04-24T04:33:23;9.80;30.90
15296;DHT22;7749;49.964;7.890;2023-04-24T04:35:54;9.60;22.80
15296;DHT22;7749;49.964;7.890;2023-04-24T04:38:24;9.70;18.20
15296;DHT22;7749;49.964;7.890;2023-04-24T04:40:54;9.60;1.00
15296;DHT22;7749;49.964;7.890;2023-04-24T04:43:26;9.70;1.00
15296;DHT22;7749;49.964;7.890;2023-04-24T04:45:58;9.70;1.00
15296;DHT22;7749;49.964;7.890;2023-04-24T04:48:26;9.80;1.00
15296;DHT22;7749;49.964;7.890;2023-04-24T04:50:54;9.80;1.00
15296;DHT22;7749;49.964;7.890;2023-04-24T04:53:22;9.80;1.00
15296;DHT22;7749;49.964;7.890;2023-04-24T04:55:50;9.80;1.00
15296;DHT22;7749;49.964;7.890;2023-04-24T04:58:17;9.80;1.00
15296;DHT22;7749;49.964;7.890;2023-04-24T05:00:46;9.90;1.00
15296;DHT22;7749;49.964;7.890;2023-04-24T05:03:13;9.90;1.00
15296;DHT22;7749;49.964;7.890;2023-04-24T05:05:47;9.90;1.00
15296;DHT22;7749;49.964;7.890;2023-04-24T05:08:17;10.00;1.00
15296;DHT22;7749;49.964;7.890;2023-04-24T05:10:54;10.10;1.00
15296;DHT22;7749;49.964;7.890;2023-04-24T05:13:22;10.20;1.00
15296;DHT22;7749;49.964;7.890;2023-04-24T05:16:05;10.20;1.00
15296;DHT22;7749;49.964;7.890;2023-04-24T05:18:36;10.30;1.00
15296;DHT22;7749;49.964;7.890;2023-04-24T05:21:03;10.30;1.00
15296;DHT22;7749;49.964;7.890;2023-04-24T05:23:31;10.50;1.00
15296;DHT22;7749;49.964;7.890;2023-04-24T05:25:59;10.50;1.00
15296;DHT22;7749;49.964;7.890;2023-04-24T05:28:33;10.70;1.00
15296;DHT22;7749;49.964;7.890;2023-04-24T05:31:04;10.80;1.00
15296;DHT22;7749;49.964;7.890;2023-04-24T05:33:36;10.70;1.00
15296;DHT22;7749;49.964;7.890;2023-04-24T05:36:06;10.90;1.00
15296;DHT22;7749;49.964;7.890;2023-04-24T05:38:34;10.60;1.00
15296;DHT22;7749;49.964;7.890;2023-04-24T05:41:01;10.50;1.00
15296;DHT22;7749;49.964;7.890;2023-04-24T05:43:32;10.70;1.00
15296;DHT22;7749;49.964;7.890;2023-04-24T05:45:59;11.00;1.00
15296;DHT22;7749;49.964;7.890;2023-04-24T05:48:27;11.00;1.00
15296;DHT22;7749;49.964;7.890;2023-04-24T05:50:55;10.90;1.00
15296;DHT22;7749;49.964;7.890;2023-04-24T05:53:22;10.90;1.00
15296;DHT22;7749;49.964;7.890;2023-04-24T05:55:51;10.80;1.00
15296;DHT22;7749;49.964;7.890;2023-04-24T05:58:19;10.80;99.90
15296;DHT22;7749;49.964;7.890;2023-04-24T06:00:47;11.00;99.90
15296;DHT22;7749;49.964;7.890;2023-04-24T06:03:15;10.90;99.90
15296;DHT22;7749;49.964;7.890;2023-04-24T06:05:46;11.00;99.90
15296;DHT22;7749;49.964;7.890;2023-04-24T06:08:13;11.00;99.90
15296;DHT22;7749;49.964;7.890;2023-04-24T06:10:41;10.90;99.90
15296;DHT22;7749;49.964;7.890;2023-04-24T06:13:08;11.00;99.90
15296;DHT22;7749;49.964;7.890;2023-04-24T06:15:36;11.00;99.90
15296;DHT22;7749;49.964;7.890;2023-04-24T06:18:04;10.90;99.90
15296;DHT22;7749;49.964;7.890;2023-04-24T06:20:32;10.90;99.90
15296;DHT22;7749;49.964;7.890;2023-04-24T06:22:59;11.00;99.90
15296;DHT22;7749;49.964;7.890;2023-04-24T06:25:27;11.20;99.90
15296;DHT22;7749;49.964;7.890;2023-04-24T06:27:59;11.30;1.00
15296;DHT22;7749;49.964;7.890;2023-04-24T06:30:26;11.30;1.00
15296;DHT22;7749;49.964;7.890;2023-04-24T06:32:55;11.40;1.00
15296;DHT22;7749;49.964;7.890;2023-04-24T06:35:36;11.40;1.00
15296;DHT22;7749;49.964;7.890;2023-04-24T06:38:04;11.30;1.00
15296;DHT22;7749;49.964;7.890;2023-04-24T06:40:31;11.30;1.00
15296;DHT22;7749;49.964;7.890;2023-04-24T06:42:59;11.40;1.00
15296;DHT22;7749;49.964;7.890;2023-04-24T06:45:30;11.50;1.00
15296;DHT22;7749;49.964;7.890;2023-04-24T06:47:57;11.70;1.00
15296;DHT22;7749;49.964;7.890;2023-04-24T06:50:25;11.60;1.00
15296;DHT22;7749;49.964;7.890;2023-04-24T06:52:53;11.70;1.00
15296;DHT22;7749;49.964;7.890;2023-04-24T06:55:21;11.60;1.00
15296;DHT22;7749;49.964;7.890;2023-04-24T06:57:48;11.60;1.00
15296;DHT22;7749;49.964;7.890;2023-04-24T07:00:16;11.80;1.00
15296;DHT22;7749;49.964;7.890;2023-04-24T07:02:44;12.10;1.00
15296;DHT22;7749;49.964;7.890;2023-04-24T07:05:12;12.20;1.00
15296;DHT22;7749;49.964;7.890;2023-04-24T07:07:40;12.30;1.00
15296;DHT22;7749;49.964;7.890;2023-04-24T07:10:08;12.10;1.00
15296;DHT22;7749;49.964;7.890;2023-04-24T07:12:36;12.30;1.00
15296;DHT22;7749;49.964;7.890;2023-04-24T07:15:05;12.60;1.00
15296;DHT22;7749;49.964;7.890;2023-04-24T07:17:34;12.80;99.90
15296;DHT22;7749;49.964;7.890;2023-04-24T07:20:02;12.80;1.00
15296;DHT22;7749;49.964;7.890;2023-04-24T07:22:31;12.90;99.90
15296;DHT22;7749;49.964;7.890;2023-04-24T07:24:59;12.90;1.00
15296;DHT22;7749;49.964;7.890;2023-04-24T07:27:26;12.80;1.00
15296;DHT22;7749;49.964;7.890;2023-04-24T07:29:54;12.80;1.00
15296;DHT22;7749;49.964;7.890;2023-04-24T07:32:22;12.70;1.00
15296;DHT22;7749;49.964;7.890;2023-04-24T07:34:50;12.70;1.00
15296;DHT22;7749;49.964;7.890;2023-04-24T07:37:18;12.80;1.00
15296;DHT22;7749;49.964;7.890;2023-04-24T07:39:45;13.20;99.90
15296;DHT22;7749;49.964;7.890;2023-04-24T07:42:13;13.10;1.00
15296;DHT22;7749;49.964;7.890;2023-04-24T07:44:41;13.40;1.00
15296;DHT22;7749;49.964;7.890;2023-04-24T07:47:08;13.80;1.00
15296;DHT22;7749;49.964;7.890;2023-04-24T07:49:36;13.70;99.90
15296;DHT22;7749;49.964;7.890;2023-04-24T07:52:04;13.60;99.90
15296;DHT22;7749;49.964;7.890;2023-04-24T07:54:32;13.10;1.00
15296;DHT22;7749;49.964;7.890;2023-04-24T07:56:59;13.10;1.00
15296;DHT22;7749;49.964;7.890;2023-04-24T07:59:28;13.20;1.00
15296;DHT22;7749;49.964;7.890;2023-04-24T08:01:55;13.20;85.50
15296;DHT22;7749;49.964;7.890;2023-04-24T08:04:23;12.70;99.90
15296;DHT22;7749;49.964;7.890;2023-04-24T08:06:51;12.30;99.90
15296;DHT22;7749;49.964;7.890;2023-04-24T08:09:19;12.40;99.90
15296;DHT22;7749;49.964;7.890;2023-04-24T08:11:47;12.60;99.90
15296;DHT22;7749;49.964;7.890;2023-04-24T08:14:14;12.50;99.90
15296;DHT22;7749;49.964;7.890;2023-04-24T08:16:42;12.30;1.00
15296;DHT22;7749;49.964;7.890;2023-04-24T08:19:11;12.30;60.30
15296;DHT22;7749;49.964;7.890;2023-04-24T08:21:41;12.20;1.00
15296;DHT22;7749;49.964;7.890;2023-04-24T08:24:09;12.40;1.00
15296;DHT22;7749;49.964;7.890;2023-04-24T08:26:36;12.70;1.00
15296;DHT22;7749;49.964;7.890;2023-04-24T08:29:04;12.80;1.00
15296;DHT22;7749;49.964;7.890;2023-04-24T08:31:36;12.80;1.00
15296;DHT22;7749;49.964;7.890;2023-04-24T08:34:04;12.90;99.90
15296;DHT22;7749;49.964;7.890;2023-04-24T08:36:32;13.00;99.90
15296;DHT22;7749;49.964;7.890;2023-04-24T08:39:14;13.10;99.90
15296;DHT22;7749;49.964;7.890;2023-04-24T08:41:42;13.40;99.90
15296;DHT22;7749;49.964;7.890;2023-04-24T08:44:11;13.30;99.90
15296;DHT22;7749;49.964;7.890;2023-04-24T08:46:40;13.20;1.00
15296;DHT22;7749;49.964;7.890;2023-04-24T08:49:08;13.90;1.00
15296;DHT22;7749;49.964;7.890;2023-04-24T08:51:37;14.20;99.90
15296;DHT22;7749;49.964;7.890;2023-04-24T08:54:05;14.30;99.90
15296;DHT22;7749;49.964;7.890;2023-04-24T08:56:37;13.90;99.90
15296;DHT22;7749;49.964;7.890;2023-04-24T08:59:06;13.70;99.90
15296;DHT22;7749;49.964;7.890;2023-04-24T09:01:34;13.40;99.90
15296;DHT22;7749;49.964;7.890;2023-04-24T09:04:07;13.20;1.00
15296;DHT22;7749;49.964;7.890;2023-04-24T09:06:35;13.30;1.00
15296;DHT22;7749;49.964;7.890;2023-04-24T09:09:07;13.40;1.00
15296;DHT22;7749;49.964;7.890;2023-04-24T09:11:36;13.60;1.00
15296;DHT22;7749;49.964;7.890;2023-04-24T09:14:10;13.70;99.90
15296;DHT22;7749;49.964;7.890;2023-04-24T09:16:41;14.20;99.90
15296;DHT22;7749;49.964;7.890;2023-04-24T09:19:09;14.30;99.90
15296;DHT22;7749;49.964;7.890;2023-04-24T09:21:37;14.50;1.00
15296;DHT22;7749;49.964;7.890;2023-04-24T09:24:07;14.40;3.40
15296;DHT22;7749;49.964;7.890;2023-04-24T09:26:36;14.50;1.00
15296;DHT22;7749;49.964;7.890;2023-04-24T09:29:04;14.40;1.00
15296;DHT22;7749;49.964;7.890;2023-04-24T09:31:32;14.00;99.90
15296;DHT22;7749;49.964;7.890;2023-04-24T09:34:02;13.40;1.00
15296;DHT22;7749;49.964;7.890;2023-04-24T09:36:38;13.30;1.00
15296;DHT22;7749;49.964;7.890;2023-04-24T09:39:11;13.30;1.00
15296;DHT22;7749;49.964;7.890;2023-04-24T09:44:21;13.50;1.00
15296;DHT22;7749;49.964;7.890;2023-04-24T09:46:55;13.50;1.00
15296;DHT22;7749;49.964;7.890;2023-04-24T09:49:28;13.90;1.00
15296;DHT22;7749;49.964;7.890;2023-04-24T09:52:06;13.90;1.00
15296;DHT22;7749;49.964;7.890;2023-04-24T09:54:34;13.30;1.00
15296;DHT22;7749;49.964;7.890;2023-04-24T09:57:04;13.30;99.90
15296;DHT22;7749;49.964;7.890;2023-04-24T09:59:32;13.20;1.00
15296;DHT22;7749;49.964;7.890;2023-04-24T10:02:03;13.20;99.90
15296;DHT22;7749;49.964;7.890;2023-04-24T10:04:56;13.00;99.90
15296;DHT22;7749;49.964;7.890;2023-04-24T10:07:27;12.90;1.00
15296;DHT22;7749;49.964;7.890;2023-04-24T10:09:55;13.10;99.90
15296;DHT22;7749;49.964;7.890;2023-04-24T10:12:24;13.10;99.90
15296;DHT22;7749;49.964;7.890;2023-04-24T10:14:53;12.50;1.00
15296;DHT22;7749;49.964;7.890;2023-04-24T10:17:22;12.00;1.00
15296;DHT22;7749;49.964;7.890;2023-04-24T10:19:51;11.80;1.00
15296;DHT22;7749;49.964;7.890;2023-04-24T10:22:19;12.00;1.00
15296;DHT22;7749;49.964;7.890;2023-04-24T10:24:49;11.80;99.90
15296;DHT22;7749;49.964;7.890;2023-04-24T10:27:18;11.80;1.00
15296;DHT22;7749;49.964;7.890;2023-04-24T10:29:51;11.60;1.00
15296;DHT22;7749;49.964;7.890;2023-04-24T10:32:20;11.70;99.90
15296;DHT22;7749;49.964;7.890;2023-04-24T10:34:48;11.80;1.00
15296;DHT22;7749;49.964;7.890;2023-04-24T10:37:16;12.10;99.90
15296;DHT22;7749;49.964;7.890;2023-04-24T10:39:47;12.10;1.00
15296;DHT22;7749;49.964;7.890;2023-04-24T10:42:16;12.10;99.90
15296;DHT22;7749;49.964;7.890;2023-04-24T10:44:47;12.30;99.90
15296;DHT22;7749;49.964;7.890;2023-04-24T10:47:15;12.50;90.00
15296;DHT22;7749;49.964;7.890;2023-04-24T10:49:43;13.20;1.00
15296;DHT22;7749;49.964;7.890;2023-04-24T10:52:11;12.70;1.00
15296;DHT22;7749;49.964;7.890;2023-04-24T10:54:45;12.70;99.90
15296;DHT22;7749;49.964;7.890;2023-04-24T11:00:18;12.90;1.00
15296;DHT22;7749;49.964;7.890;2023-04-24T11:02:48;13.60;99.90
15296;DHT22;7749;49.964;7.890;2023-04-24T11:05:19;14.00;1.00
15296;DHT22;7749;49.964;7.890;2023-04-24T11:08:13;14.00;99.90
15296;DHT22;7749;49.964;7.890;2023-04-24T11:10:55;14.00;99.90
15296;DHT22;7749;49.964;7.890;2023-04-24T11:13:26;15.40;1.00
15296;DHT22;7749;49.964;7.890;2023-04-24T11:18:44;17.30;99.90
15296;DHT22;7749;49.964;7.890;2023-04-24T11:21:18;19.30;1.00
15296;DHT22;7749;49.964;7.890;2023-04-24T11:23:46;18.40;1.00
15296;DHT22;7749;49.964;7.890;2023-04-24T11:26:19;18.30;1.00
15296;DHT22;7749;49.964;7.890;2023-04-24T11:28:50;18.30;1.00
15296;DHT22;7749;49.964;7.890;2023-04-24T11:31:40;18.00;1.00
15296;DHT22;7749;49.964;7.890;2023-04-24T11:37:37;19.90;1.00
15296;DHT22;7749;49.964;7.890;2023-04-24T11:40:19;18.90;1.00
15296;DHT22;7749;49.964;7.890;2023-04-24T11:43:11;18.40;1.00
15296;DHT22;7749;49.964;7.890;2023-04-24T11:45:48;17.50;1.00
15296;DHT22;7749;49.964;7.890;2023-04-24T11:48:23;16.60;1.00
15296;DHT22;7749;49.964;7.890;2023-04-24T11:50:54;15.60;1.00
15296;DHT22;7749;49.964;7.890;2023-04-24T11:53:22;15.00;1.00
15296;DHT22;7749;49.964;7.890;2023-04-24T11:55:50;14.70;1.00
15296;DHT22;7749;49.964;7.890;2023-04-24T11:58:21;14.90;1.00
15296;DHT22;7749;49.964;7.890;2023-04-24T12:01:05;14.90;1.00
15296;DHT22;7749;49.964;7.890;2023-04-24T12:03:39;14.60;1.00
15296;DHT22;7749;49.964;7.890;2023-04-24T12:09:06;14.70;1.00
15296;DHT22;7749;49.964;7.890;2023-04-24T12:16:26;14.50;1.00
15296;DHT22;7749;49.964;7.890;2023-04-24T12:18:54;15.00;1.00
15296;DHT22;7749;49.964;7.890;2023-04-24T12:21:25;15.00;1.00
15296;DHT22;7749;49.964;7.890;2023-04-24T12:23:57;15.60;1.00
15296;DHT22;7749;49.964;7.890;2023-04-24T12:26:27;15.90;1.00
15296;DHT22;7749;49.964;7.890;2023-04-24T12:28:55;15.60;1.00
15296;DHT22;7749;49.964;7.890;2023-04-24T12:31:25;15.90;1.00
15296;DHT22;7749;49.964;7.890;2023-04-24T12:33:54;16.70;1.00
15296;DHT22;7749;49.964;7.890;2023-04-24T12:36:22;16.30;1.00
15296;DHT22;7749;49.964;7.890;2023-04-24T12:38:54;15.80;1.00
15296;DHT22;7749;49.964;7.890;2023-04-24T12:41:21;15.60;1.00
15296;DHT22;7749;49.964;7.890;2023-04-24T12:43:53;15.00;1.00
15296;DHT22;7749;49.964;7.890;2023-04-24T12:46:21;14.70;1.00
15296;DHT22;7749;49.964;7.890;2023-04-24T12:48:49;14.60;1.00
15296;DHT22;7749;49.964;7.890;2023-04-24T12:51:17;14.10;1.00
15296;DHT22;7749;49.964;7.890;2023-04-24T12:53:46;13.50;99.90
15296;DHT22;7749;49.964;7.890;2023-04-24T12:56:14;13.20;30.30
15296;DHT22;7749;49.964;7.890;2023-04-24T12:58:42;14.20;1.00
15296;DHT22;7749;49.964;7.890;2023-04-24T13:01:10;16.80;99.90
15296;DHT22;7749;49.964;7.890;2023-04-24T13:03:37;18.60;1.00
15296;DHT22;7749;49.964;7.890;2023-04-24T13:06:06;19.10;1.00
15296;DHT22;7749;49.964;7.890;2023-04-24T13:08:33;19.70;1.00
15296;DHT22;7749;49.964;7.890;2023-04-24T13:11:03;18.70;1.00
15296;DHT22;7749;49.964;7.890;2023-04-24T13:13:31;17.20;1.00
15296;DHT22;7749;49.964;7.890;2023-04-24T13:15:59;15.30;1.00
15296;DHT22;7749;49.964;7.890;2023-04-24T13:18:27;15.00;1.00
15296;DHT22;7749;49.964;7.890;2023-04-24T13:20:58;14.80;1.00
15296;DHT22;7749;49.964;7.890;2023-04-24T13:23:25;14.20;1.00
15296;DHT22;7749;49.964;7.890;2023-04-24T13:25:53;14.00;1.00
15296;DHT22;7749;49.964;7.890;2023-04-24T13:28:25;14.10;1.00
15296;DHT22;7749;49.964;7.890;2023-04-24T13:30:53;14.50;1.00
15296;DHT22;7749;49.964;7.890;2023-04-24T13:33:21;14.50;1.00
15296;DHT22;7749;49.964;7.890;2023-04-24T13:35:48;14.50;1.00
15296;DHT22;7749;49.964;7.890;2023-04-24T13:38:16;14.50;1.00
15296;DHT22;7749;49.964;7.890;2023-04-24T13:40:44;14.20;1.00
15296;DHT22;7749;49.964;7.890;2023-04-24T13:43:12;14.40;1.00
15296;DHT22;7749;49.964;7.890;2023-04-24T13:45:42;14.40;1.00
15296;DHT22;7749;49.964;7.890;2023-04-24T13:48:10;15.30;1.00
15296;DHT22;7749;49.964;7.890;2023-04-24T13:50:38;15.90;1.00
15296;DHT22;7749;49.964;7.890;2023-04-24T13:53:06;17.30;1.00
15296;DHT22;7749;49.964;7.890;2023-04-24T13:55:36;18.10;1.00
15296;DHT22;7749;49.964;7.890;2023-04-24T13:58:04;17.50;1.00
15296;DHT22;7749;49.964;7.890;2023-04-24T14:00:32;17.60;1.00
15296;DHT22;7749;49.964;7.890;2023-04-24T14:03:00;16.30;1.00
15296;DHT22;7749;49.964;7.890;2023-04-24T14:05:28;15.80;1.00
15296;DHT22;7749;49.964;7.890;2023-04-24T14:07:56;15.00;1.00
15296;DHT22;7749;49.964;7.890;2023-04-24T14:10:24;14.60;1.00
15296;DHT22;7749;49.964;7.890;2023-04-24T14:12:53;14.70;1.00
15296;DHT22;7749;49.964;7.890;2023-04-24T14:15:20;14.40;1.00
15296;DHT22;7749;49.964;7.890;2023-04-24T14:17:48;14.00;1.00
15296;DHT22;7749;49.964;7.890;2023-04-24T14:20:17;14.50;1.00
15296;DHT22;7749;49.964;7.890;2023-04-24T14:22:48;14.70;1.00
15296;DHT22;7749;49.964;7.890;2023-04-24T14:25:16;15.30;1.00
15296;DHT22;7749;49.964;7.890;2023-04-24T14:27:43;17.20;1.00
15296;DHT22;7749;49.964;7.890;2023-04-24T14:30:12;19.10;1.00
15296;DHT22;7749;49.964;7.890;2023-04-24T14:32:40;19.00;1.00
15296;DHT22;7749;49.964;7.890;2023-04-24T14:35:08;18.10;1.00
15296;DHT22;7749;49.964;7.890;2023-04-24T14:37:36;17.20;1.00
15296;DHT22;7749;49.964;7.890;2023-04-24T14:40:04;15.60;1.00
15296;DHT22;7749;49.964;7.890;2023-04-24T14:42:55;15.80;1.00
15296;DHT22;7749;49.964;7.890;2023-04-24T14:45:26;15.40;1.00
15296;DHT22;7749;49.964;7.890;2023-04-24T14:47:54;16.00;1.00
15296;DHT22;7749;49.964;7.890;2023-04-24T14:50:22;15.70;1.00
15296;DHT22;7749;49.964;7.890;2023-04-24T14:52:51;16.60;1.00
15296;DHT22;7749;49.964;7.890;2023-04-24T14:55:19;16.90;1.00
15296;DHT22;7749;49.964;7.890;2023-04-24T14:57:47;17.00;1.00
15296;DHT22;7749;49.964;7.890;2023-04-24T15:00:17;16.50;1.00
15296;DHT22;7749;49.964;7.890;2023-04-24T15:02:45;16.40;1.00
15296;DHT22;7749;49.964;7.890;2023-04-24T15:05:13;16.70;1.00
15296;DHT22;7749;49.964;7.890;2023-04-24T15:07:42;16.90;1.00
15296;DHT22;7749;49.964;7.890;2023-04-24T15:10:20;17.10;1.00
15296;DHT22;7749;49.964;7.890;2023-04-24T15:13:00;16.80;1.00
15296;DHT22;7749;49.964;7.890;2023-04-24T15:15:27;16.20;1.00
15296;DHT22;7749;49.964;7.890;2023-04-24T15:17:55;16.10;1.00
15296;DHT22;7749;49.964;7.890;2023-04-24T15:20:23;15.20;1.00
15296;DHT22;7749;49.964;7.890;2023-04-24T15:22:53;15.10;1.00
15296;DHT22;7749;49.964;7.890;2023-04-24T15:25:21;14.70;1.00
15296;DHT22;7749;49.964;7.890;2023-04-24T15:27:49;14.50;1.00
15296;DHT22;7749;49.964;7.890;2023-04-24T15:30:17;14.50;1.00
15296;DHT22;7749;49.964;7.890;2023-04-24T15:32:45;14.50;1.00
15296;DHT22;7749;49.964;7.890;2023-04-24T15:35:13;14.20;1.00
15296;DHT22;7749;49.964;7.890;2023-04-24T15:37:45;14.20;1.00
15296;DHT22;7749;49.964;7.890;2023-04-24T15:40:13;13.50;1.00
15296;DHT22;7749;49.964;7.890;2023-04-24T15:42:44;13.50;99.90
15296;DHT22;7749;49.964;7.890;2023-04-24T15:45:12;14.80;1.00
15296;DHT22;7749;49.964;7.890;2023-04-24T15:47:40;16.10;99.90
15296;DHT22;7749;49.964;7.890;2023-04-24T15:50:08;17.60;1.00
15296;DHT22;7749;49.964;7.890;2023-04-24T15:52:40;19.40;1.00
15296;DHT22;7749;49.964;7.890;2023-04-24T15:55:09;21.30;1.00
15296;DHT22;7749;49.964;7.890;2023-04-24T15:57:37;22.60;1.00
15296;DHT22;7749;49.964;7.890;2023-04-24T16:00:08;22.40;99.90
15296;DHT22;7749;49.964;7.890;2023-04-24T16:02:37;22.70;99.90
15296;DHT22;7749;49.964;7.890;2023-04-24T16:05:05;23.00;99.90
15296;DHT22;7749;49.964;7.890;2023-04-24T16:07:34;22.90;99.90
15296;DHT22;7749;49.964;7.890;2023-04-24T16:10:02;22.30;99.90
15296;DHT22;7749;49.964;7.890;2023-04-24T16:12:30;22.50;99.90
15296;DHT22;7749;49.964;7.890;2023-04-24T16:14:58;24.00;99.90
15296;DHT22;7749;49.964;7.890;2023-04-24T16:17:26;24.90;99.90
15296;DHT22;7749;49.964;7.890;2023-04-24T16:19:53;22.90;99.90
15296;DHT22;7749;49.964;7.890;2023-04-24T16:22:21;20.40;99.90
15296;DHT22;7749;49.964;7.890;2023-04-24T16:24:49;18.60;99.90
15296;DHT22;7749;49.964;7.890;2023-04-24T16:27:16;17.40;99.90
15296;DHT22;7749;49.964;7.890;2023-04-24T16:29:44;16.80;1.00
15296;DHT22;7749;49.964;7.890;2023-04-24T16:32:12;17.00;1.00
15296;DHT22;7749;49.964;7.890;2023-04-24T16:34:40;17.90;1.00